Charlotte Hall, Maryland
Current Conditions -  °F | °C
As of 9:52 AM on Thursday 30 Oct 2014 (Local Time) from K2W6 Reporting Station
Overcast Overcast  
Wind Chill: 52°   Ceiling: 7000
Heat Index: 52°   Visibility: 10mi
Dew Point: 41°   Wind: 6mph
Humidity: 67%   Direction: 320°NW
Pressure: 30.07"   Gusts: NA
Location:  38.48°N, 76.79°W
Report Text: K2W6 301352Z AUTO 32005KT 10SM OVC070 11/05 A3007 RMK AO1
Loading
Personal Weather Stations






























Interactive Weather Map
Tropical Storm Tracking
New forecast layout! Learn more

10-Day Weather Forecast

Advertisements
Track Severe Weather on mobile